createdAt,value
2023-05-13T00:01:07.423Z,8.27
2023-05-13T00:03:38.330Z,7.25
2023-05-13T00:06:13.674Z,8.10
2023-05-13T00:08:46.732Z,8.55
2023-05-13T00:11:17.075Z,8.18
2023-05-13T00:13:49.381Z,8.10
2023-05-13T00:16:24.591Z,9.30
2023-05-13T00:18:58.099Z,10.40
2023-05-13T00:21:35.053Z,21.10
2023-05-13T00:24:08.432Z,8.18
2023-05-13T00:26:41.004Z,8.82
2023-05-13T00:29:14.612Z,7.78
2023-05-13T00:31:47.461Z,7.85
2023-05-13T00:34:22.288Z,9.20
2023-05-13T00:36:55.229Z,6.75
2023-05-13T00:39:26.057Z,7.43
2023-05-13T00:41:56.522Z,7.80
2023-05-13T00:44:29.466Z,8.07
2023-05-13T00:47:00.185Z,8.50
2023-05-13T00:49:30.716Z,9.15
2023-05-13T00:52:03.663Z,6.53
2023-05-13T00:54:35.223Z,8.32
2023-05-13T00:57:07.114Z,8.07
2023-05-13T00:59:37.567Z,8.77
2023-05-13T01:02:13.477Z,7.82
2023-05-13T01:04:49.215Z,7.38
2023-05-13T01:07:28.640Z,7.38
2023-05-13T01:10:06.576Z,6.50
2023-05-13T01:12:39.058Z,4.43
2023-05-13T01:15:11.913Z,6.60
2023-05-13T01:17:47.532Z,9.88
2023-05-13T01:20:18.533Z,8.95
2023-05-13T01:22:52.665Z,6.40
2023-05-13T01:25:22.998Z,3.60
2023-05-13T01:27:55.548Z,4.28
2023-05-13T01:30:26.966Z,6.38
2023-05-13T01:32:57.631Z,6.75
2023-05-13T01:35:28.542Z,7.40
2023-05-13T01:40:33.212Z,10.52
2023-05-13T01:43:03.862Z,5.80
2023-05-13T01:45:35.180Z,3.58
2023-05-13T01:48:05.472Z,6.45
2023-05-13T01:50:36.281Z,3.83
2023-05-13T01:53:06.604Z,8.10
2023-05-13T01:55:39.606Z,5.95
2023-05-13T01:58:09.945Z,5.43
2023-05-13T02:00:40.401Z,5.53
2023-05-13T02:03:10.860Z,6.13
2023-05-13T02:05:41.427Z,6.05
2023-05-13T02:08:11.752Z,4.63
2023-05-13T02:10:44.774Z,5.72
2023-05-13T02:13:15.291Z,6.43
2023-05-13T02:15:45.764Z,5.82
2023-05-13T02:18:16.076Z,4.90
2023-05-13T02:20:46.554Z,5.75
2023-05-13T02:23:17.909Z,6.03
2023-05-13T02:25:50.871Z,5.30
2023-05-13T02:28:21.239Z,5.68
2023-05-13T02:30:51.642Z,5.63
2023-05-13T02:33:23.951Z,6.22
2023-05-13T02:35:54.562Z,5.30
2023-05-13T02:38:24.905Z,5.43
2023-05-13T02:40:57.839Z,4.57
2023-05-13T02:43:28.774Z,7.10
2023-05-13T02:45:59.170Z,5.03
2023-05-13T02:48:29.460Z,7.80
2023-05-13T02:50:59.786Z,5.80
2023-05-13T02:53:30.075Z,5.78
2023-05-13T02:56:03.020Z,5.20
2023-05-13T02:58:33.327Z,4.00
2023-05-13T03:01:03.778Z,7.10
2023-05-13T03:03:35.401Z,7.15
2023-05-13T03:06:06.044Z,5.78
2023-05-13T03:08:38.069Z,6.22
2023-05-13T03:11:11.308Z,5.82
2023-05-13T03:13:44.600Z,5.43
2023-05-13T03:16:16.943Z,7.80
2023-05-13T03:18:48.414Z,7.57
2023-05-13T03:21:18.774Z,4.20
2023-05-13T03:23:49.097Z,10.63
2023-05-13T03:26:23.913Z,4.65
2023-05-13T03:28:54.194Z,6.03
2023-05-13T03:31:24.650Z,5.22
2023-05-13T03:33:56.013Z,5.25
2023-05-13T03:36:27.464Z,6.93
2023-05-13T03:38:58.888Z,6.05
2023-05-13T03:41:31.949Z,9.68
2023-05-13T03:44:02.303Z,5.43
2023-05-13T03:46:34.226Z,7.43
2023-05-13T03:49:05.557Z,4.53
2023-05-13T03:51:36.870Z,5.05
2023-05-13T03:54:08.336Z,5.35
2023-05-13T03:56:42.392Z,5.80
2023-05-13T03:59:13.703Z,5.18
2023-05-13T04:01:45.184Z,5.40
2023-05-13T04:04:17.106Z,7.63
2023-05-13T04:06:47.484Z,4.38
2023-05-13T04:09:18.059Z,5.35
2023-05-13T04:11:52.365Z,5.32
2023-05-13T04:14:23.942Z,6.05
2023-05-13T04:16:55.471Z,6.45
2023-05-13T04:19:27.124Z,4.25
2023-05-13T04:21:58.659Z,5.75
2023-05-13T04:24:30.080Z,5.45
2023-05-13T04:27:04.247Z,5.13
2023-05-13T04:29:34.507Z,5.30
2023-05-13T04:32:05.020Z,5.15
2023-05-13T04:34:36.488Z,4.47
2023-05-13T04:37:07.859Z,5.13
2023-05-13T04:39:39.316Z,5.30
2023-05-13T04:42:13.493Z,5.57
2023-05-13T04:44:44.908Z,6.47
2023-05-13T04:47:16.448Z,8.38
2023-05-13T04:49:47.718Z,8.13
2023-05-13T04:52:19.900Z,5.35
2023-05-13T04:54:51.346Z,5.00
2023-05-13T04:57:25.529Z,7.20
2023-05-13T04:59:57.272Z,4.30
2023-05-13T05:02:30.234Z,6.13
2023-05-13T05:05:01.647Z,7.88
2023-05-13T05:07:33.690Z,4.47
2023-05-13T05:10:04.115Z,5.63
2023-05-13T05:12:38.918Z,5.32
2023-05-13T05:15:15.924Z,6.70
2023-05-13T05:17:47.381Z,5.78
2023-05-13T05:20:18.938Z,37.08
2023-05-13T05:22:50.808Z,40.13
2023-05-13T05:25:24.992Z,51.72
2023-05-13T05:27:58.395Z,70.72
2023-05-13T05:30:28.705Z,14.02
2023-05-13T05:33:00.362Z,6.13
2023-05-13T05:35:33.584Z,7.15
2023-05-13T05:38:04.949Z,4.43
2023-05-13T05:40:36.947Z,6.72
2023-05-13T05:43:11.282Z,5.72
2023-05-13T05:45:43.071Z,6.10
2023-05-13T05:48:14.394Z,8.77
2023-05-13T05:50:45.975Z,9.90
2023-05-13T05:53:17.374Z,7.35
2023-05-13T05:55:49.093Z,5.45
2023-05-13T05:58:24.135Z,7.65
2023-05-13T06:00:54.971Z,6.15
2023-05-13T06:05:57.385Z,9.13
2023-05-13T06:08:30.513Z,6.38
2023-05-13T06:11:03.290Z,8.98
2023-05-13T06:13:36.249Z,8.98
2023-05-13T06:16:06.721Z,9.85
2023-05-13T06:18:39.166Z,8.18
2023-05-13T06:21:10.656Z,5.95
2023-05-13T06:23:42.680Z,8.15
2023-05-13T06:26:13.776Z,6.82
2023-05-13T06:28:47.518Z,10.80
2023-05-13T06:31:19.335Z,10.50
2023-05-13T06:33:52.907Z,6.28
2023-05-13T06:36:24.068Z,8.20
2023-05-13T06:38:55.388Z,10.73
2023-05-13T06:41:26.629Z,7.65
2023-05-13T06:44:00.645Z,9.90
2023-05-13T06:46:30.952Z,6.65
2023-05-13T06:49:02.250Z,7.75
2023-05-13T06:51:35.028Z,9.00
2023-05-13T06:54:06.358Z,13.23
2023-05-13T06:56:37.806Z,14.40
2023-05-13T06:59:12.372Z,8.52
2023-05-13T07:01:43.682Z,7.60
2023-05-13T07:04:15.036Z,6.80
2023-05-13T07:06:46.449Z,6.80
2023-05-13T07:09:17.748Z,9.60
2023-05-13T07:11:48.960Z,22.10
2023-05-13T07:14:24.780Z,8.23
2023-05-13T07:16:56.294Z,8.48
2023-05-13T07:19:27.710Z,9.48
2023-05-13T07:21:59.057Z,6.63
2023-05-13T07:24:30.410Z,5.80
2023-05-13T07:27:01.633Z,7.07
2023-05-13T07:29:35.658Z,10.20
2023-05-13T07:32:10.534Z,6.72
2023-05-13T07:34:42.078Z,8.18
2023-05-13T07:37:13.351Z,6.18
2023-05-13T07:39:44.705Z,7.00
2023-05-13T07:42:15.933Z,7.93
2023-05-13T07:44:50.232Z,6.07
2023-05-13T07:47:21.724Z,9.00
2023-05-13T07:49:53.899Z,7.65
2023-05-13T07:52:25.215Z,7.15
2023-05-13T07:54:56.701Z,7.13
2023-05-13T07:57:27.157Z,6.90
2023-05-13T08:00:00.093Z,6.88
2023-05-13T08:02:34.918Z,6.50
2023-05-13T08:05:06.342Z,9.32
2023-05-13T08:07:37.509Z,6.13
2023-05-13T08:10:09.342Z,10.43
2023-05-13T08:12:40.589Z,7.25
2023-05-13T08:15:15.040Z,8.45
2023-05-13T08:17:46.099Z,7.53
2023-05-13T08:20:17.201Z,8.40
2023-05-13T08:22:48.352Z,8.95
2023-05-13T08:25:19.728Z,7.22
2023-05-13T08:27:50.503Z,9.25
2023-05-13T08:30:23.614Z,5.65
2023-05-13T08:32:54.047Z,7.93
2023-05-13T08:35:25.055Z,6.38
2023-05-13T08:37:55.897Z,9.52
2023-05-13T08:40:26.957Z,7.57
2023-05-13T08:43:00.280Z,8.30
2023-05-13T08:45:34.510Z,5.63
2023-05-13T08:48:06.350Z,6.60
2023-05-13T08:50:37.159Z,5.95
2023-05-13T08:53:08.108Z,6.40
2023-05-13T08:55:39.028Z,6.20
2023-05-13T08:58:12.596Z,7.90
2023-05-13T09:00:46.388Z,5.68
2023-05-13T09:03:17.659Z,7.88
2023-05-13T09:05:48.756Z,4.97
2023-05-13T09:08:19.497Z,10.77
2023-05-13T09:10:50.733Z,6.55
2023-05-13T09:13:23.547Z,6.10
2023-05-13T09:15:57.513Z,7.57
2023-05-13T09:18:34.989Z,6.63
2023-05-13T09:21:26.667Z,5.60
2023-05-13T09:24:07.897Z,5.05
2023-05-13T09:26:39.512Z,5.55
2023-05-13T09:29:20.344Z,5.07
2023-05-13T09:31:54.667Z,5.75
2023-05-13T09:34:34.422Z,5.10
2023-05-13T09:37:05.946Z,5.60
2023-05-13T09:39:37.259Z,8.82
2023-05-13T09:42:09.675Z,5.82
2023-05-13T09:44:40.302Z,5.85
2023-05-13T09:47:16.017Z,5.60
2023-05-13T09:49:47.789Z,4.65
2023-05-13T09:52:20.346Z,5.32
2023-05-13T09:54:50.396Z,6.55
2023-05-13T09:57:21.329Z,5.93
2023-05-13T09:59:52.228Z,4.90
2023-05-13T10:02:27.222Z,5.40
2023-05-13T10:04:59.221Z,4.50
2023-05-13T10:07:32.972Z,5.50
2023-05-13T10:10:05.651Z,8.13
2023-05-13T10:12:37.781Z,12.27
2023-05-13T10:15:10.210Z,5.95
2023-05-13T10:17:45.029Z,10.38
2023-05-13T10:20:16.770Z,5.93
2023-05-13T10:22:47.855Z,4.32
2023-05-13T10:25:18.541Z,6.97
2023-05-13T10:27:49.434Z,9.10
2023-05-13T10:30:26.491Z,5.78
2023-05-13T10:32:59.684Z,5.65
2023-05-13T10:35:33.925Z,5.38
2023-05-13T10:38:11.896Z,6.30
2023-05-13T10:41:05.035Z,8.45
2023-05-13T10:43:37.721Z,5.97
2023-05-13T10:46:09.005Z,7.65
2023-05-13T10:48:51.227Z,5.18
2023-05-13T10:51:25.575Z,6.28
2023-05-13T10:53:58.160Z,6.93
2023-05-13T10:56:31.216Z,6.68
2023-05-13T10:59:02.665Z,7.55
2023-05-13T11:01:34.103Z,6.97
2023-05-13T11:04:08.730Z,7.22
2023-05-13T11:06:42.124Z,7.10
2023-05-13T11:09:16.092Z,7.20
2023-05-13T11:11:50.704Z,6.78
2023-05-13T11:14:22.192Z,15.38
2023-05-13T11:16:56.490Z,6.40
2023-05-13T11:19:30.318Z,6.47
2023-05-13T11:22:07.920Z,6.70
2023-05-13T11:24:38.086Z,5.25
2023-05-13T11:27:18.313Z,7.32
2023-05-13T11:29:52.847Z,4.70
2023-05-13T11:32:52.996Z,5.72
2023-05-13T11:35:27.688Z,6.88
2023-05-13T11:38:00.127Z,5.35
2023-05-13T11:40:32.174Z,6.10
2023-05-13T11:43:05.253Z,7.22
2023-05-13T11:45:37.795Z,5.20
2023-05-13T11:48:22.344Z,5.38
2023-05-13T11:50:55.571Z,7.43
2023-05-13T11:53:25.809Z,5.47
2023-05-13T11:55:55.991Z,5.68
2023-05-13T11:58:26.088Z,4.68
2023-05-13T12:03:30.820Z,7.78
2023-05-13T12:06:08.087Z,4.45
2023-05-13T12:08:38.340Z,9.05
2023-05-13T12:11:13.266Z,8.38
2023-05-13T12:13:44.706Z,4.70
2023-05-13T12:16:15.102Z,5.15
2023-05-13T12:18:45.301Z,5.53
2023-05-13T12:23:54.227Z,5.63
2023-05-13T12:31:29.606Z,4.22
2023-05-13T12:33:59.827Z,6.55
2023-05-13T12:39:09.228Z,5.50
2023-05-13T12:41:40.776Z,4.35
2023-05-13T12:44:12.588Z,8.77
2023-05-13T12:46:52.941Z,4.88
2023-05-13T12:49:23.702Z,3.97
2023-05-13T12:51:57.085Z,6.97
2023-05-13T12:54:27.223Z,5.18
2023-05-13T12:56:57.318Z,5.55
2023-05-13T12:59:29.620Z,5.68
2023-05-13T13:01:59.861Z,5.00
2023-05-13T13:07:03.064Z,5.75
2023-05-13T13:09:33.188Z,6.53
2023-05-13T13:12:03.300Z,7.47
2023-05-13T13:14:33.441Z,5.03
2023-05-13T13:24:36.047Z,5.57
2023-05-13T13:29:36.296Z,6.15
2023-05-13T13:32:07.053Z,4.97
2023-05-13T13:34:38.209Z,5.53
2023-05-13T13:37:11.473Z,5.05
2023-05-13T13:39:41.579Z,7.15
2023-05-13T13:42:11.690Z,6.55
2023-05-13T13:44:41.762Z,5.43
2023-05-13T13:47:12.922Z,4.95
2023-05-13T13:49:43.478Z,6.18
2023-05-13T13:52:16.877Z,5.95
2023-05-13T13:54:48.982Z,4.90
2023-05-13T13:57:19.150Z,7.07
2023-05-13T13:59:49.242Z,5.80
2023-05-13T14:02:19.909Z,5.78
2023-05-13T14:04:50.944Z,6.05
2023-05-13T14:07:24.120Z,5.47
2023-05-13T14:09:54.960Z,7.38
2023-05-13T14:12:25.372Z,8.82
2023-05-13T14:14:56.143Z,8.38
2023-05-13T14:17:27.424Z,5.47
2023-05-13T14:19:58.529Z,5.05
2023-05-13T14:22:32.398Z,5.10
2023-05-13T14:25:03.517Z,4.65
2023-05-13T14:27:36.630Z,6.47
2023-05-13T14:30:08.253Z,7.80
2023-05-13T14:32:39.260Z,5.13
2023-05-13T14:35:10.763Z,5.63
2023-05-13T14:37:44.540Z,6.00
2023-05-13T14:40:15.726Z,4.78
2023-05-13T14:42:46.891Z,5.95
2023-05-13T14:45:18.944Z,4.45
2023-05-13T14:47:50.427Z,5.07
2023-05-13T14:50:20.838Z,5.95
2023-05-13T14:52:53.870Z,5.13
2023-05-13T14:55:24.096Z,4.97
2023-05-13T14:57:54.239Z,4.68
2023-05-13T15:00:24.588Z,4.28
2023-05-13T15:02:54.886Z,4.63
2023-05-13T15:05:26.531Z,5.85
2023-05-13T15:07:59.582Z,64.10
2023-05-13T15:10:29.871Z,97.18
2023-05-13T15:13:00.244Z,13.63
2023-05-13T15:15:30.582Z,12.52
2023-05-13T15:18:00.975Z,7.45
2023-05-13T15:20:31.430Z,5.63
2023-05-13T15:23:04.432Z,6.15
2023-05-13T15:25:34.779Z,7.68
2023-05-13T15:28:05.173Z,6.40
2023-05-13T15:30:36.626Z,6.68
2023-05-13T15:33:07.220Z,5.43
2023-05-13T15:38:10.992Z,4.72
2023-05-13T15:40:41.763Z,5.57
2023-05-13T15:43:12.114Z,6.00
2023-05-13T15:45:42.783Z,5.22
2023-05-13T15:48:13.519Z,5.00
2023-05-13T15:50:43.842Z,7.32
2023-05-13T15:53:16.764Z,5.50
2023-05-13T15:55:47.175Z,5.35
2023-05-13T15:58:17.542Z,6.45
2023-05-13T16:00:47.832Z,5.03
2023-05-13T16:03:18.208Z,4.82
2023-05-13T16:05:48.607Z,6.18
2023-05-13T16:08:21.559Z,5.90
2023-05-13T16:10:51.881Z,5.57
2023-05-13T16:13:22.470Z,5.63
2023-05-13T16:15:52.795Z,6.65
2023-05-13T16:18:23.206Z,5.30
2023-05-13T16:20:55.058Z,6.43
2023-05-13T16:23:28.083Z,6.40
2023-05-13T16:25:58.923Z,10.05
2023-05-13T16:28:29.481Z,9.20
2023-05-13T16:30:59.797Z,9.75
2023-05-13T16:33:30.488Z,8.75
2023-05-13T16:36:00.867Z,6.70
2023-05-13T16:38:35.505Z,5.72
2023-05-13T16:41:05.959Z,6.35
2023-05-13T16:46:06.274Z,6.65
2023-05-13T16:48:37.047Z,6.05
2023-05-13T16:51:07.543Z,7.47
2023-05-13T16:58:40.831Z,8.43
2023-05-13T17:01:11.221Z,8.02
2023-05-13T17:03:41.599Z,7.55
2023-05-13T17:06:12.044Z,7.43
2023-05-13T17:08:42.400Z,10.32
2023-05-13T17:11:16.764Z,7.88
2023-05-13T17:13:49.905Z,10.85
2023-05-13T17:16:20.215Z,10.07
2023-05-13T17:18:50.672Z,8.63
2023-05-13T17:21:21.129Z,10.90
2023-05-13T17:23:51.453Z,11.27
2023-05-13T17:26:22.476Z,10.45
2023-05-13T17:28:55.520Z,9.68
2023-05-13T17:31:26.312Z,9.82
2023-05-13T17:33:56.844Z,10.52
2023-05-13T17:38:57.168Z,11.23
2023-05-13T17:41:27.578Z,9.75
2023-05-13T17:44:00.811Z,10.85
2023-05-13T17:46:31.134Z,9.73
2023-05-13T17:49:01.656Z,10.27
2023-05-13T17:54:02.143Z,8.25
2023-05-13T17:56:32.529Z,9.73
2023-05-13T17:59:05.731Z,7.40
2023-05-13T18:01:36.064Z,10.45
2023-05-13T18:04:06.447Z,13.00
2023-05-13T18:06:40.364Z,11.02
2023-05-13T18:09:10.735Z,12.07
2023-05-13T18:11:41.098Z,11.00
2023-05-13T18:14:14.384Z,11.30
2023-05-13T18:16:44.788Z,8.90
2023-05-13T18:19:15.243Z,12.88
2023-05-13T18:21:46.823Z,8.48
2023-05-13T18:24:17.209Z,10.05
2023-05-13T18:26:47.492Z,10.13
2023-05-13T18:29:20.535Z,12.02
2023-05-13T18:31:50.925Z,9.25
2023-05-13T18:34:21.293Z,8.70
2023-05-13T18:36:52.151Z,10.30
2023-05-13T18:39:22.661Z,8.63
2023-05-13T18:41:53.089Z,8.88
2023-05-13T18:44:26.125Z,10.18
2023-05-13T18:46:56.671Z,8.40
2023-05-13T18:51:59.113Z,10.43
2023-05-13T18:56:59.848Z,10.10
2023-05-13T18:59:32.810Z,9.13
2023-05-13T19:02:03.372Z,11.98
2023-05-13T19:04:34.156Z,12.13
2023-05-13T19:07:04.766Z,10.07
2023-05-13T19:09:36.219Z,9.05
2023-05-13T19:12:07.750Z,13.00
2023-05-13T19:14:40.695Z,8.60
2023-05-13T19:17:11.054Z,11.88
2023-05-13T19:19:42.411Z,12.82
2023-05-13T19:22:12.773Z,12.13
2023-05-13T19:24:43.160Z,14.15
2023-05-13T19:27:13.749Z,9.45
2023-05-13T19:32:16.853Z,11.07
2023-05-13T19:34:47.222Z,14.90
2023-05-13T19:37:17.580Z,12.88
2023-05-13T19:39:48.848Z,10.77
2023-05-13T19:42:19.201Z,11.18
2023-05-13T19:44:49.518Z,10.40
2023-05-13T19:47:22.557Z,12.30
2023-05-13T19:49:52.988Z,10.95
2023-05-13T19:52:23.322Z,10.27
2023-05-13T19:54:53.726Z,13.70
2023-05-13T19:57:24.251Z,9.75
2023-05-13T19:59:55.135Z,14.20
2023-05-13T20:02:28.353Z,14.00
2023-05-13T20:04:58.840Z,11.18
2023-05-13T20:07:29.161Z,10.15
2023-05-13T20:09:59.522Z,11.77
2023-05-13T20:12:30.196Z,12.25
2023-05-13T20:20:05.355Z,10.15
2023-05-13T20:22:35.795Z,13.43
2023-05-13T20:25:06.243Z,11.65
2023-05-13T20:27:36.572Z,11.55
2023-05-13T20:30:07.766Z,14.00
2023-05-13T20:32:38.086Z,11.05
2023-05-13T20:35:11.650Z,16.65
2023-05-13T20:37:42.013Z,13.75
2023-05-13T20:40:13.048Z,15.65
2023-05-13T20:42:43.399Z,17.08
2023-05-13T20:45:14.112Z,17.65
2023-05-13T20:50:17.500Z,14.60
2023-05-13T20:52:47.793Z,13.02
2023-05-13T20:55:18.389Z,17.20
2023-05-13T20:57:48.667Z,15.43
2023-05-13T21:00:19.316Z,18.35
2023-05-13T21:02:50.643Z,16.63
2023-05-13T21:05:24.127Z,16.85
2023-05-13T21:07:54.988Z,16.80
2023-05-13T21:12:55.751Z,15.18
2023-05-13T21:15:26.344Z,14.90
2023-05-13T21:17:56.830Z,12.70
2023-05-13T21:20:31.033Z,14.80
2023-05-13T21:23:01.519Z,16.77
2023-05-13T21:25:31.899Z,19.65
2023-05-13T21:28:02.229Z,16.60
2023-05-13T21:30:33.845Z,17.67
2023-05-13T21:33:04.180Z,17.00
2023-05-13T21:35:36.924Z,17.35
2023-05-13T21:38:12.068Z,19.17
2023-05-13T21:40:42.633Z,17.08
2023-05-13T21:43:13.113Z,19.55
2023-05-13T21:45:43.308Z,15.80
2023-05-13T21:48:13.441Z,20.20
2023-05-13T21:50:46.249Z,22.67
2023-05-13T21:53:16.325Z,17.90
2023-05-13T21:55:47.530Z,16.83
2023-05-13T21:58:18.156Z,18.83
2023-05-13T22:00:48.547Z,17.38
2023-05-13T22:03:18.740Z,20.42
2023-05-13T22:05:51.516Z,23.30
2023-05-13T22:08:22.233Z,20.90
2023-05-13T22:10:52.391Z,19.73
2023-05-13T22:13:22.996Z,19.30
2023-05-13T22:15:53.261Z,21.40
2023-05-13T22:18:24.042Z,18.77
2023-05-13T22:23:26.797Z,22.60
2023-05-13T22:25:56.888Z,19.25
2023-05-13T22:28:26.962Z,20.17
2023-05-13T22:30:57.523Z,20.67
2023-05-13T22:33:27.637Z,26.25
2023-05-13T22:36:00.352Z,26.23
2023-05-13T22:38:30.406Z,26.65
2023-05-13T22:41:00.926Z,25.13
2023-05-13T22:43:30.972Z,23.35
2023-05-13T22:46:01.160Z,25.48
2023-05-13T22:48:31.333Z,25.35
2023-05-13T22:51:04.145Z,21.45
2023-05-13T22:53:34.515Z,24.83
2023-05-13T22:56:04.706Z,25.42
2023-05-13T22:58:34.753Z,24.13
2023-05-13T23:01:04.880Z,28.98
2023-05-13T23:03:34.937Z,25.60
2023-05-13T23:06:08.049Z,25.67
2023-05-13T23:08:38.108Z,26.00
2023-05-13T23:11:08.520Z,27.70
2023-05-13T23:13:38.637Z,26.05
2023-05-13T23:16:09.575Z,27.80
2023-05-13T23:18:40.156Z,25.17
2023-05-13T23:21:12.958Z,31.95
2023-05-13T23:23:43.663Z,26.92
2023-05-13T23:26:13.997Z,25.35
2023-05-13T23:28:44.089Z,28.33
2023-05-13T23:31:14.276Z,26.45
2023-05-13T23:33:44.440Z,27.80
2023-05-13T23:36:17.322Z,29.15
2023-05-13T23:38:47.404Z,29.77
2023-05-13T23:41:17.532Z,29.23
2023-05-13T23:43:47.816Z,28.98
2023-05-13T23:46:18.025Z,28.80
2023-05-13T23:48:48.206Z,26.45
2023-05-13T23:51:21.173Z,29.08
2023-05-13T23:53:52.037Z,27.85
2023-05-13T23:56:22.427Z,25.80
2023-05-13T23:58:52.490Z,26.92
